sensor_id;sensor_type;location;lat;lon;timestamp;P1;durP1;ratioP1;P2;durP2;ratioP2
18114;SDS011;9184;54.390;18.620;2023-03-30T00:00:12;23.65;;;12.65;;
18114;SDS011;9184;54.390;18.620;2023-03-30T00:00:47;21.07;;;12.80;;
18114;SDS011;9184;54.390;18.620;2023-03-30T00:01:19;24.80;;;13.13;;
18114;SDS011;9184;54.390;18.620;2023-03-30T00:01:49;21.20;;;12.37;;
18114;SDS011;9184;54.390;18.620;2023-03-30T00:02:20;24.00;;;13.90;;
18114;SDS011;9184;54.390;18.620;2023-03-30T00:02:52;22.42;;;14.13;;
18114;SDS011;9184;54.390;18.620;2023-03-30T00:03:23;27.07;;;14.50;;
18114;SDS011;9184;54.390;18.620;2023-03-30T00:03:58;22.52;;;14.25;;
18114;SDS011;9184;54.390;18.620;2023-03-30T00:04:31;23.17;;;14.13;;
18114;SDS011;9184;54.390;18.620;2023-03-30T00:05:05;28.63;;;15.43;;
18114;SDS011;9184;54.390;18.620;2023-03-30T00:05:37;29.05;;;17.25;;
18114;SDS011;9184;54.390;18.620;2023-03-30T00:06:09;31.27;;;18.20;;
18114;SDS011;9184;54.390;18.620;2023-03-30T00:06:40;27.42;;;18.92;;
18114;SDS011;9184;54.390;18.620;2023-03-30T00:07:11;31.83;;;20.60;;
18114;SDS011;9184;54.390;18.620;2023-03-30T00:07:42;25.17;;;18.10;;
18114;SDS011;9184;54.390;18.620;2023-03-30T00:08:13;29.17;;;17.77;;
18114;SDS011;9184;54.390;18.620;2023-03-30T00:08:47;27.83;;;16.30;;
18114;SDS011;9184;54.390;18.620;2023-03-30T00:09:17;33.17;;;18.25;;
18114;SDS011;9184;54.390;18.620;2023-03-30T00:09:49;31.35;;;18.67;;
18114;SDS011;9184;54.390;18.620;2023-03-30T00:10:19;33.13;;;18.47;;
18114;SDS011;9184;54.390;18.620;2023-03-30T00:10:50;26.92;;;16.77;;
18114;SDS011;9184;54.390;18.620;2023-03-30T00:11:24;29.57;;;16.43;;
18114;SDS011;9184;54.390;18.620;2023-03-30T00:11:55;30.47;;;17.00;;
18114;SDS011;9184;54.390;18.620;2023-03-30T00:12:25;30.25;;;15.85;;
18114;SDS011;9184;54.390;18.620;2023-03-30T00:12:58;23.40;;;14.35;;
18114;SDS011;9184;54.390;18.620;2023-03-30T00:13:29;24.70;;;16.10;;
18114;SDS011;9184;54.390;18.620;2023-03-30T00:13:59;27.88;;;15.73;;
18114;SDS011;9184;54.390;18.620;2023-03-30T00:14:31;30.80;;;16.55;;
18114;SDS011;9184;54.390;18.620;2023-03-30T00:15:07;26.15;;;14.95;;
18114;SDS011;9184;54.390;18.620;2023-03-30T00:15:38;34.30;;;15.65;;
18114;SDS011;9184;54.390;18.620;2023-03-30T00:16:10;24.83;;;14.25;;
18114;SDS011;9184;54.390;18.620;2023-03-30T00:16:41;24.75;;;14.05;;
18114;SDS011;9184;54.390;18.620;2023-03-30T00:17:12;28.58;;;14.65;;
18114;SDS011;9184;54.390;18.620;2023-03-30T00:17:43;31.40;;;15.18;;
18114;SDS011;9184;54.390;18.620;2023-03-30T00:18:14;25.63;;;13.93;;
18114;SDS011;9184;54.390;18.620;2023-03-30T00:18:45;26.47;;;14.33;;
18114;SDS011;9184;54.390;18.620;2023-03-30T00:19:16;25.73;;;14.70;;
18114;SDS011;9184;54.390;18.620;2023-03-30T00:19:47;27.97;;;13.77;;
18114;SDS011;9184;54.390;18.620;2023-03-30T00:20:19;26.80;;;13.73;;
18114;SDS011;9184;54.390;18.620;2023-03-30T00:20:53;27.67;;;14.33;;
18114;SDS011;9184;54.390;18.620;2023-03-30T00:21:24;24.40;;;13.60;;
18114;SDS011;9184;54.390;18.620;2023-03-30T00:21:54;26.60;;;13.75;;
18114;SDS011;9184;54.390;18.620;2023-03-30T00:22:26;24.27;;;13.43;;
18114;SDS011;9184;54.390;18.620;2023-03-30T00:22:57;32.87;;;13.80;;
18114;SDS011;9184;54.390;18.620;2023-03-30T00:23:28;26.33;;;13.17;;
18114;SDS011;9184;54.390;18.620;2023-03-30T00:24:00;30.25;;;13.70;;
18114;SDS011;9184;54.390;18.620;2023-03-30T00:24:30;23.50;;;13.85;;
18114;SDS011;9184;54.390;18.620;2023-03-30T00:25:01;24.87;;;13.50;;
18114;SDS011;9184;54.390;18.620;2023-03-30T00:25:32;27.38;;;13.98;;
18114;SDS011;9184;54.390;18.620;2023-03-30T00:26:03;23.50;;;12.60;;
18114;SDS011;9184;54.390;18.620;2023-03-30T00:26:33;28.00;;;13.77;;
18114;SDS011;9184;54.390;18.620;2023-03-30T00:27:05;30.42;;;14.05;;
18114;SDS011;9184;54.390;18.620;2023-03-30T00:27:36;22.20;;;14.05;;
18114;SDS011;9184;54.390;18.620;2023-03-30T00:28:06;30.30;;;13.88;;
18114;SDS011;9184;54.390;18.620;2023-03-30T00:28:39;24.70;;;13.30;;
18114;SDS011;9184;54.390;18.620;2023-03-30T00:29:10;25.70;;;14.27;;
18114;SDS011;9184;54.390;18.620;2023-03-30T00:29:40;27.17;;;14.07;;
18114;SDS011;9184;54.390;18.620;2023-03-30T00:30:12;26.33;;;14.00;;
18114;SDS011;9184;54.390;18.620;2023-03-30T00:30:45;23.03;;;13.73;;
18114;SDS011;9184;54.390;18.620;2023-03-30T00:31:16;21.05;;;12.43;;
18114;SDS011;9184;54.390;18.620;2023-03-30T00:31:48;24.95;;;13.38;;
18114;SDS011;9184;54.390;18.620;2023-03-30T00:32:18;24.17;;;14.27;;
18114;SDS011;9184;54.390;18.620;2023-03-30T00:32:51;22.63;;;13.57;;
18114;SDS011;9184;54.390;18.620;2023-03-30T00:33:23;23.65;;;13.98;;
18114;SDS011;9184;54.390;18.620;2023-03-30T00:33:55;26.70;;;14.90;;
18114;SDS011;9184;54.390;18.620;2023-03-30T00:34:26;27.55;;;15.48;;
18114;SDS011;9184;54.390;18.620;2023-03-30T00:34:57;35.20;;;14.50;;
18114;SDS011;9184;54.390;18.620;2023-03-30T00:35:29;27.05;;;13.63;;
18114;SDS011;9184;54.390;18.620;2023-03-30T00:35:59;25.35;;;13.60;;
18114;SDS011;9184;54.390;18.620;2023-03-30T00:36:32;23.52;;;13.57;;
18114;SDS011;9184;54.390;18.620;2023-03-30T00:37:06;23.88;;;13.77;;
18114;SDS011;9184;54.390;18.620;2023-03-30T00:37:36;29.20;;;14.47;;
18114;SDS011;9184;54.390;18.620;2023-03-30T00:38:07;21.13;;;13.43;;
18114;SDS011;9184;54.390;18.620;2023-03-30T00:38:40;23.35;;;13.90;;
18114;SDS011;9184;54.390;18.620;2023-03-30T00:39:10;22.98;;;13.98;;
18114;SDS011;9184;54.390;18.620;2023-03-30T00:39:42;20.42;;;13.50;;
18114;SDS011;9184;54.390;18.620;2023-03-30T00:40:15;21.52;;;12.60;;
18114;SDS011;9184;54.390;18.620;2023-03-30T00:40:50;25.15;;;13.60;;
18114;SDS011;9184;54.390;18.620;2023-03-30T00:41:20;25.60;;;13.38;;
18114;SDS011;9184;54.390;18.620;2023-03-30T00:41:51;29.67;;;14.63;;
18114;SDS011;9184;54.390;18.620;2023-03-30T00:42:22;26.83;;;13.45;;
18114;SDS011;9184;54.390;18.620;2023-03-30T00:42:56;26.48;;;14.23;;
18114;SDS011;9184;54.390;18.620;2023-03-30T00:43:28;23.90;;;14.02;;
18114;SDS011;9184;54.390;18.620;2023-03-30T00:43:59;26.37;;;14.23;;
18114;SDS011;9184;54.390;18.620;2023-03-30T00:45:22;29.27;;;14.00;;
18114;SDS011;9184;54.390;18.620;2023-03-30T00:45:53;20.77;;;13.18;;
18114;SDS011;9184;54.390;18.620;2023-03-30T00:46:25;28.40;;;13.75;;
18114;SDS011;9184;54.390;18.620;2023-03-30T00:47:00;24.05;;;13.75;;
18114;SDS011;9184;54.390;18.620;2023-03-30T00:47:31;24.30;;;13.55;;
18114;SDS011;9184;54.390;18.620;2023-03-30T00:48:06;25.83;;;14.23;;
18114;SDS011;9184;54.390;18.620;2023-03-30T00:48:37;23.95;;;13.60;;
18114;SDS011;9184;54.390;18.620;2023-03-30T00:49:10;27.25;;;14.27;;
18114;SDS011;9184;54.390;18.620;2023-03-30T00:49:44;21.95;;;13.95;;
18114;SDS011;9184;54.390;18.620;2023-03-30T00:50:16;28.70;;;13.55;;
18114;SDS011;9184;54.390;18.620;2023-03-30T00:50:53;24.63;;;13.63;;
18114;SDS011;9184;54.390;18.620;2023-03-30T00:51:26;24.55;;;13.82;;
18114;SDS011;9184;54.390;18.620;2023-03-30T00:51:57;24.77;;;14.23;;
18114;SDS011;9184;54.390;18.620;2023-03-30T00:52:27;25.77;;;14.05;;
18114;SDS011;9184;54.390;18.620;2023-03-30T00:52:58;27.02;;;14.68;;
18114;SDS011;9184;54.390;18.620;2023-03-30T00:53:30;22.67;;;13.60;;
18114;SDS011;9184;54.390;18.620;2023-03-30T00:54:02;26.55;;;13.95;;
18114;SDS011;9184;54.390;18.620;2023-03-30T00:54:36;21.73;;;13.80;;
18114;SDS011;9184;54.390;18.620;2023-03-30T00:55:08;22.48;;;12.95;;
18114;SDS011;9184;54.390;18.620;2023-03-30T00:55:39;31.05;;;14.88;;
18114;SDS011;9184;54.390;18.620;2023-03-30T00:56:10;24.17;;;13.40;;
18114;SDS011;9184;54.390;18.620;2023-03-30T00:56:43;23.80;;;12.85;;
18114;SDS011;9184;54.390;18.620;2023-03-30T00:57:14;25.55;;;13.90;;
18114;SDS011;9184;54.390;18.620;2023-03-30T00:57:45;25.48;;;13.57;;
18114;SDS011;9184;54.390;18.620;2023-03-30T00:58:17;27.10;;;15.00;;
18114;SDS011;9184;54.390;18.620;2023-03-30T00:58:48;26.60;;;14.23;;
18114;SDS011;9184;54.390;18.620;2023-03-30T00:59:20;24.47;;;13.97;;
18114;SDS011;9184;54.390;18.620;2023-03-30T00:59:51;25.25;;;13.93;;
18114;SDS011;9184;54.390;18.620;2023-03-30T01:00:22;25.40;;;14.18;;
18114;SDS011;9184;54.390;18.620;2023-03-30T01:00:54;22.73;;;13.75;;
18114;SDS011;9184;54.390;18.620;2023-03-30T01:01:24;26.27;;;14.57;;
18114;SDS011;9184;54.390;18.620;2023-03-30T01:01:57;32.25;;;15.23;;
18114;SDS011;9184;54.390;18.620;2023-03-30T01:02:29;25.23;;;15.15;;
18114;SDS011;9184;54.390;18.620;2023-03-30T01:03:01;24.50;;;14.02;;
18114;SDS011;9184;54.390;18.620;2023-03-30T01:03:35;23.43;;;13.80;;
18114;SDS011;9184;54.390;18.620;2023-03-30T01:04:08;30.15;;;14.27;;
18114;SDS011;9184;54.390;18.620;2023-03-30T01:04:38;23.65;;;14.18;;
18114;SDS011;9184;54.390;18.620;2023-03-30T01:05:09;21.48;;;13.50;;
18114;SDS011;9184;54.390;18.620;2023-03-30T01:05:41;25.08;;;13.48;;
18114;SDS011;9184;54.390;18.620;2023-03-30T01:06:15;25.27;;;13.87;;
18114;SDS011;9184;54.390;18.620;2023-03-30T01:06:47;23.15;;;13.70;;
18114;SDS011;9184;54.390;18.620;2023-03-30T01:07:17;23.87;;;13.67;;
18114;SDS011;9184;54.390;18.620;2023-03-30T01:07:53;21.77;;;13.20;;
18114;SDS011;9184;54.390;18.620;2023-03-30T01:08:27;26.53;;;13.60;;
18114;SDS011;9184;54.390;18.620;2023-03-30T01:09:01;26.07;;;14.03;;
18114;SDS011;9184;54.390;18.620;2023-03-30T01:09:32;24.13;;;13.27;;
18114;SDS011;9184;54.390;18.620;2023-03-30T01:10:02;23.75;;;13.88;;
18114;SDS011;9184;54.390;18.620;2023-03-30T01:10:33;22.80;;;14.50;;
18114;SDS011;9184;54.390;18.620;2023-03-30T01:11:05;24.07;;;13.53;;
18114;SDS011;9184;54.390;18.620;2023-03-30T01:11:36;24.15;;;13.85;;
18114;SDS011;9184;54.390;18.620;2023-03-30T01:12:06;23.15;;;14.63;;
18114;SDS011;9184;54.390;18.620;2023-03-30T01:12:37;32.75;;;14.85;;
18114;SDS011;9184;54.390;18.620;2023-03-30T01:13:09;21.20;;;13.40;;
18114;SDS011;9184;54.390;18.620;2023-03-30T01:13:40;22.88;;;14.10;;
18114;SDS011;9184;54.390;18.620;2023-03-30T01:14:11;26.35;;;13.55;;
18114;SDS011;9184;54.390;18.620;2023-03-30T01:14:44;29.00;;;13.65;;
18114;SDS011;9184;54.390;18.620;2023-03-30T01:15:15;20.35;;;13.60;;
18114;SDS011;9184;54.390;18.620;2023-03-30T01:15:50;22.90;;;13.15;;
18114;SDS011;9184;54.390;18.620;2023-03-30T01:16:26;22.47;;;14.20;;
18114;SDS011;9184;54.390;18.620;2023-03-30T01:16:59;22.85;;;13.07;;
18114;SDS011;9184;54.390;18.620;2023-03-30T01:17:34;29.38;;;14.57;;
18114;SDS011;9184;54.390;18.620;2023-03-30T01:18:12;22.63;;;13.30;;
18114;SDS011;9184;54.390;18.620;2023-03-30T01:18:47;26.50;;;14.18;;
18114;SDS011;9184;54.390;18.620;2023-03-30T01:20:21;23.27;;;12.88;;
18114;SDS011;9184;54.390;18.620;2023-03-30T01:21:24;20.83;;;12.73;;
18114;SDS011;9184;54.390;18.620;2023-03-30T01:22:16;20.95;;;12.18;;
18114;SDS011;9184;54.390;18.620;2023-03-30T01:23:04;21.77;;;12.43;;
18114;SDS011;9184;54.390;18.620;2023-03-30T01:24:46;25.93;;;12.50;;
18114;SDS011;9184;54.390;18.620;2023-03-30T01:26:24;20.97;;;12.17;;
18114;SDS011;9184;54.390;18.620;2023-03-30T01:26:57;22.30;;;12.32;;
18114;SDS011;9184;54.390;18.620;2023-03-30T01:27:48;19.47;;;12.13;;
18114;SDS011;9184;54.390;18.620;2023-03-30T01:28:23;22.73;;;12.67;;
18114;SDS011;9184;54.390;18.620;2023-03-30T01:28:54;21.67;;;12.00;;
18114;SDS011;9184;54.390;18.620;2023-03-30T01:29:35;21.95;;;12.50;;
18114;SDS011;9184;54.390;18.620;2023-03-30T01:30:15;32.03;;;12.98;;
18114;SDS011;9184;54.390;18.620;2023-03-30T01:30:58;22.63;;;13.03;;
18114;SDS011;9184;54.390;18.620;2023-03-30T01:31:45;20.77;;;12.27;;
18114;SDS011;9184;54.390;18.620;2023-03-30T01:32:37;23.37;;;12.40;;
18114;SDS011;9184;54.390;18.620;2023-03-30T01:35:53;23.07;;;13.00;;
18114;SDS011;9184;54.390;18.620;2023-03-30T01:39:21;19.10;;;11.90;;
18114;SDS011;9184;54.390;18.620;2023-03-30T01:39:58;18.27;;;11.50;;
18114;SDS011;9184;54.390;18.620;2023-03-30T01:40:38;19.50;;;13.02;;
18114;SDS011;9184;54.390;18.620;2023-03-30T01:41:10;20.38;;;11.73;;
18114;SDS011;9184;54.390;18.620;2023-03-30T01:41:45;25.40;;;12.70;;
18114;SDS011;9184;54.390;18.620;2023-03-30T01:42:20;20.13;;;12.47;;
18114;SDS011;9184;54.390;18.620;2023-03-30T01:42:53;25.77;;;12.10;;
18114;SDS011;9184;54.390;18.620;2023-03-30T01:43:27;21.97;;;13.20;;
18114;SDS011;9184;54.390;18.620;2023-03-30T01:44:01;22.50;;;11.82;;
18114;SDS011;9184;54.390;18.620;2023-03-30T01:44:37;19.63;;;12.50;;
18114;SDS011;9184;54.390;18.620;2023-03-30T01:45:11;21.20;;;12.48;;
18114;SDS011;9184;54.390;18.620;2023-03-30T01:45:43;19.80;;;12.57;;
18114;SDS011;9184;54.390;18.620;2023-03-30T01:46:18;18.73;;;11.60;;
18114;SDS011;9184;54.390;18.620;2023-03-30T01:46:54;21.48;;;12.27;;
18114;SDS011;9184;54.390;18.620;2023-03-30T01:47:28;21.10;;;12.63;;
18114;SDS011;9184;54.390;18.620;2023-03-30T01:48:05;19.07;;;12.70;;
18114;SDS011;9184;54.390;18.620;2023-03-30T01:48:38;21.23;;;12.20;;
18114;SDS011;9184;54.390;18.620;2023-03-30T01:49:14;18.77;;;12.85;;
18114;SDS011;9184;54.390;18.620;2023-03-30T01:49:50;17.42;;;11.75;;
18114;SDS011;9184;54.390;18.620;2023-03-30T01:50:23;22.25;;;11.85;;
18114;SDS011;9184;54.390;18.620;2023-03-30T01:50:55;20.60;;;11.83;;
18114;SDS011;9184;54.390;18.620;2023-03-30T01:51:28;19.77;;;12.13;;
18114;SDS011;9184;54.390;18.620;2023-03-30T01:52:01;23.35;;;12.13;;
18114;SDS011;9184;54.390;18.620;2023-03-30T01:52:35;22.93;;;12.67;;
18114;SDS011;9184;54.390;18.620;2023-03-30T01:53:12;17.75;;;11.57;;
18114;SDS011;9184;54.390;18.620;2023-03-30T01:53:44;25.90;;;13.20;;
18114;SDS011;9184;54.390;18.620;2023-03-30T01:54:17;18.50;;;11.57;;
18114;SDS011;9184;54.390;18.620;2023-03-30T01:54:52;19.77;;;12.90;;
18114;SDS011;9184;54.390;18.620;2023-03-30T01:55:27;20.08;;;12.45;;
18114;SDS011;9184;54.390;18.620;2023-03-30T01:55:59;22.25;;;13.32;;
18114;SDS011;9184;54.390;18.620;2023-03-30T01:56:32;22.42;;;11.90;;
18114;SDS011;9184;54.390;18.620;2023-03-30T01:57:06;21.73;;;12.45;;
18114;SDS011;9184;54.390;18.620;2023-03-30T01:57:40;22.02;;;12.18;;
18114;SDS011;9184;54.390;18.620;2023-03-30T01:58:13;21.05;;;12.40;;
18114;SDS011;9184;54.390;18.620;2023-03-30T01:58:47;23.73;;;11.63;;
18114;SDS011;9184;54.390;18.620;2023-03-30T01:59:20;22.70;;;12.48;;
18114;SDS011;9184;54.390;18.620;2023-03-30T01:59:55;19.33;;;11.95;;
18114;SDS011;9184;54.390;18.620;2023-03-30T02:00:26;22.77;;;12.85;;
18114;SDS011;9184;54.390;18.620;2023-03-30T02:00:57;20.80;;;12.73;;
18114;SDS011;9184;54.390;18.620;2023-03-30T02:01:30;20.10;;;12.07;;
18114;SDS011;9184;54.390;18.620;2023-03-30T02:02:02;15.73;;;11.43;;
18114;SDS011;9184;54.390;18.620;2023-03-30T02:02:33;27.37;;;13.07;;
18114;SDS011;9184;54.390;18.620;2023-03-30T02:03:06;20.63;;;11.88;;
18114;SDS011;9184;54.390;18.620;2023-03-30T02:03:37;21.00;;;13.03;;
18114;SDS011;9184;54.390;18.620;2023-03-30T02:04:09;21.85;;;12.02;;
18114;SDS011;9184;54.390;18.620;2023-03-30T02:04:42;21.87;;;13.40;;
18114;SDS011;9184;54.390;18.620;2023-03-30T02:05:14;17.73;;;11.77;;
18114;SDS011;9184;54.390;18.620;2023-03-30T02:05:47;20.02;;;12.15;;
18114;SDS011;9184;54.390;18.620;2023-03-30T02:06:20;22.13;;;12.13;;
18114;SDS011;9184;54.390;18.620;2023-03-30T02:06:54;23.93;;;13.30;;
18114;SDS011;9184;54.390;18.620;2023-03-30T02:07:27;19.57;;;11.73;;
18114;SDS011;9184;54.390;18.620;2023-03-30T02:07:59;24.15;;;12.95;;
18114;SDS011;9184;54.390;18.620;2023-03-30T02:08:32;21.45;;;12.88;;
18114;SDS011;9184;54.390;18.620;2023-03-30T02:09:03;18.27;;;11.40;;
18114;SDS011;9184;54.390;18.620;2023-03-30T02:09:35;19.83;;;12.27;;
18114;SDS011;9184;54.390;18.620;2023-03-30T02:10:09;20.10;;;11.50;;
18114;SDS011;9184;54.390;18.620;2023-03-30T02:10:41;19.33;;;11.57;;
18114;SDS011;9184;54.390;18.620;2023-03-30T02:11:14;20.98;;;12.02;;
18114;SDS011;9184;54.390;18.620;2023-03-30T02:11:45;22.23;;;12.25;;
18114;SDS011;9184;54.390;18.620;2023-03-30T02:12:17;25.33;;;12.00;;
18114;SDS011;9184;54.390;18.620;2023-03-30T02:12:50;20.90;;;12.52;;
18114;SDS011;9184;54.390;18.620;2023-03-30T02:13:21;22.42;;;12.95;;
18114;SDS011;9184;54.390;18.620;2023-03-30T02:13:52;16.45;;;11.60;;
18114;SDS011;9184;54.390;18.620;2023-03-30T02:14:24;21.80;;;12.02;;
18114;SDS011;9184;54.390;18.620;2023-03-30T02:14:56;21.13;;;12.73;;
18114;SDS011;9184;54.390;18.620;2023-03-30T02:15:29;20.13;;;11.98;;
18114;SDS011;9184;54.390;18.620;2023-03-30T02:16:02;19.30;;;12.35;;
18114;SDS011;9184;54.390;18.620;2023-03-30T02:16:35;21.08;;;12.05;;
18114;SDS011;9184;54.390;18.620;2023-03-30T02:17:07;22.27;;;12.02;;
18114;SDS011;9184;54.390;18.620;2023-03-30T02:17:40;17.73;;;12.10;;
18114;SDS011;9184;54.390;18.620;2023-03-30T02:18:11;21.65;;;12.68;;
18114;SDS011;9184;54.390;18.620;2023-03-30T02:18:41;21.98;;;11.60;;
18114;SDS011;9184;54.390;18.620;2023-03-30T02:19:14;21.50;;;11.93;;
18114;SDS011;9184;54.390;18.620;2023-03-30T02:19:44;18.65;;;12.20;;
18114;SDS011;9184;54.390;18.620;2023-03-30T02:20:15;18.75;;;12.13;;
18114;SDS011;9184;54.390;18.620;2023-03-30T02:20:48;21.70;;;12.32;;
18114;SDS011;9184;54.390;18.620;2023-03-30T02:21:18;20.25;;;12.25;;
18114;SDS011;9184;54.390;18.620;2023-03-30T02:21:49;21.48;;;11.50;;
18114;SDS011;9184;54.390;18.620;2023-03-30T02:22:20;17.65;;;11.60;;
18114;SDS011;9184;54.390;18.620;2023-03-30T02:22:51;24.58;;;11.20;;
18114;SDS011;9184;54.390;18.620;2023-03-30T02:23:22;18.50;;;11.67;;
18114;SDS011;9184;54.390;18.620;2023-03-30T02:23:56;20.98;;;11.95;;
18114;SDS011;9184;54.390;18.620;2023-03-30T02:24:27;23.37;;;12.23;;
18114;SDS011;9184;54.390;18.620;2023-03-30T02:24:59;20.77;;;13.10;;
18114;SDS011;9184;54.390;18.620;2023-03-30T02:25:33;19.13;;;11.27;;
18114;SDS011;9184;54.390;18.620;2023-03-30T02:26:05;22.25;;;11.73;;
18114;SDS011;9184;54.390;18.620;2023-03-30T02:26:37;19.08;;;12.00;;
18114;SDS011;9184;54.390;18.620;2023-03-30T02:27:09;17.75;;;11.38;;
18114;SDS011;9184;54.390;18.620;2023-03-30T02:27:40;21.57;;;12.63;;
18114;SDS011;9184;54.390;18.620;2023-03-30T02:28:11;23.40;;;11.60;;
18114;SDS011;9184;54.390;18.620;2023-03-30T02:28:42;21.60;;;12.25;;
18114;SDS011;9184;54.390;18.620;2023-03-30T02:29:13;19.95;;;12.07;;
18114;SDS011;9184;54.390;18.620;2023-03-30T02:29:45;21.20;;;12.43;;
18114;SDS011;9184;54.390;18.620;2023-03-30T02:30:16;18.58;;;12.18;;
18114;SDS011;9184;54.390;18.620;2023-03-30T02:30:51;22.10;;;12.07;;
18114;SDS011;9184;54.390;18.620;2023-03-30T02:31:21;20.33;;;12.25;;
18114;SDS011;9184;54.390;18.620;2023-03-30T02:31:53;19.13;;;11.30;;
18114;SDS011;9184;54.390;18.620;2023-03-30T02:32:25;19.60;;;11.75;;
18114;SDS011;9184;54.390;18.620;2023-03-30T02:32:57;18.17;;;11.90;;
18114;SDS011;9184;54.390;18.620;2023-03-30T02:33:28;20.30;;;11.63;;
18114;SDS011;9184;54.390;18.620;2023-03-30T02:34:05;22.30;;;12.10;;
18114;SDS011;9184;54.390;18.620;2023-03-30T02:34:43;22.27;;;12.23;;
18114;SDS011;9184;54.390;18.620;2023-03-30T02:35:20;20.50;;;12.80;;
18114;SDS011;9184;54.390;18.620;2023-03-30T02:35:58;23.67;;;12.27;;
18114;SDS011;9184;54.390;18.620;2023-03-30T02:36:35;20.77;;;12.20;;
18114;SDS011;9184;54.390;18.620;2023-03-30T02:37:24;21.47;;;11.10;;
18114;SDS011;9184;54.390;18.620;2023-03-30T02:38:09;25.70;;;12.57;;
18114;SDS011;9184;54.390;18.620;2023-03-30T02:39:00;20.07;;;11.40;;
18114;SDS011;9184;54.390;18.620;2023-03-30T02:39:41;20.27;;;11.43;;
18114;SDS011;9184;54.390;18.620;2023-03-30T02:40:23;24.80;;;12.83;;
18114;SDS011;9184;54.390;18.620;2023-03-30T02:41:02;22.92;;;11.48;;
18114;SDS011;9184;54.390;18.620;2023-03-30T02:41:43;21.73;;;12.30;;
18114;SDS011;9184;54.390;18.620;2023-03-30T02:42:29;21.47;;;12.27;;
18114;SDS011;9184;54.390;18.620;2023-03-30T02:43:05;22.50;;;12.30;;
18114;SDS011;9184;54.390;18.620;2023-03-30T02:43:43;19.27;;;11.53;;
18114;SDS011;9184;54.390;18.620;2023-03-30T02:44:16;20.83;;;12.37;;
18114;SDS011;9184;54.390;18.620;2023-03-30T02:44:52;21.47;;;12.40;;
18114;SDS011;9184;54.390;18.620;2023-03-30T02:45:29;22.93;;;12.47;;
18114;SDS011;9184;54.390;18.620;2023-03-30T02:46:07;21.17;;;13.27;;
18114;SDS011;9184;54.390;18.620;2023-03-30T02:46:47;22.67;;;12.57;;
18114;SDS011;9184;54.390;18.620;2023-03-30T02:47:24;19.20;;;11.67;;
18114;SDS011;9184;54.390;18.620;2023-03-30T02:48:02;20.00;;;12.17;;
18114;SDS011;9184;54.390;18.620;2023-03-30T02:48:37;20.52;;;12.02;;
18114;SDS011;9184;54.390;18.620;2023-03-30T02:49:13;23.02;;;12.15;;
18114;SDS011;9184;54.390;18.620;2023-03-30T02:49:49;21.98;;;12.40;;
18114;SDS011;9184;54.390;18.620;2023-03-30T02:50:23;22.50;;;12.48;;
18114;SDS011;9184;54.390;18.620;2023-03-30T02:51:00;22.80;;;12.30;;
18114;SDS011;9184;54.390;18.620;2023-03-30T02:51:35;22.17;;;13.27;;
18114;SDS011;9184;54.390;18.620;2023-03-30T02:52:09;20.17;;;12.30;;
18114;SDS011;9184;54.390;18.620;2023-03-30T02:52:49;19.63;;;12.67;;
18114;SDS011;9184;54.390;18.620;2023-03-30T02:53:23;21.17;;;13.03;;
18114;SDS011;9184;54.390;18.620;2023-03-30T02:53:59;24.30;;;12.30;;
18114;SDS011;9184;54.390;18.620;2023-03-30T02:54:32;19.23;;;11.67;;
18114;SDS011;9184;54.390;18.620;2023-03-30T02:55:08;25.43;;;12.97;;
18114;SDS011;9184;54.390;18.620;2023-03-30T02:55:42;25.47;;;12.80;;
18114;SDS011;9184;54.390;18.620;2023-03-30T02:56:19;19.10;;;11.47;;
18114;SDS011;9184;54.390;18.620;2023-03-30T02:56:54;21.43;;;11.73;;
18114;SDS011;9184;54.390;18.620;2023-03-30T02:57:27;23.53;;;13.17;;
18114;SDS011;9184;54.390;18.620;2023-03-30T02:58:01;19.70;;;12.23;;
18114;SDS011;9184;54.390;18.620;2023-03-30T02:58:36;21.98;;;12.07;;
18114;SDS011;9184;54.390;18.620;2023-03-30T02:59:10;19.77;;;12.60;;
18114;SDS011;9184;54.390;18.620;2023-03-30T02:59:43;18.97;;;11.50;;
18114;SDS011;9184;54.390;18.620;2023-03-30T03:00:20;20.30;;;12.27;;
18114;SDS011;9184;54.390;18.620;2023-03-30T03:00:52;19.63;;;12.97;;
18114;SDS011;9184;54.390;18.620;2023-03-30T03:01:25;20.77;;;12.17;;
18114;SDS011;9184;54.390;18.620;2023-03-30T03:01:59;18.23;;;10.97;;
18114;SDS011;9184;54.390;18.620;2023-03-30T03:02:32;19.02;;;12.05;;
18114;SDS011;9184;54.390;18.620;2023-03-30T03:03:07;20.23;;;12.17;;
18114;SDS011;9184;54.390;18.620;2023-03-30T03:03:41;18.75;;;13.25;;
18114;SDS011;9184;54.390;18.620;2023-03-30T03:04:13;22.10;;;11.30;;
18114;SDS011;9184;54.390;18.620;2023-03-30T03:04:45;18.53;;;12.57;;
18114;SDS011;9184;54.390;18.620;2023-03-30T03:05:18;20.15;;;12.63;;
18114;SDS011;9184;54.390;18.620;2023-03-30T03:05:51;17.88;;;11.93;;
18114;SDS011;9184;54.390;18.620;2023-03-30T03:06:23;18.90;;;11.33;;
18114;SDS011;9184;54.390;18.620;2023-03-30T03:06:54;19.27;;;11.77;;
18114;SDS011;9184;54.390;18.620;2023-03-30T03:07:25;23.52;;;12.82;;
18114;SDS011;9184;54.390;18.620;2023-03-30T03:07:57;24.13;;;12.30;;
18114;SDS011;9184;54.390;18.620;2023-03-30T03:08:28;22.63;;;13.48;;
18114;SDS011;9184;54.390;18.620;2023-03-30T03:08:59;22.38;;;12.88;;
18114;SDS011;9184;54.390;18.620;2023-03-30T03:09:30;21.60;;;13.10;;
18114;SDS011;9184;54.390;18.620;2023-03-30T03:10:01;19.83;;;12.43;;
18114;SDS011;9184;54.390;18.620;2023-03-30T03:10:32;24.45;;;12.20;;
18114;SDS011;9184;54.390;18.620;2023-03-30T03:11:05;19.93;;;12.60;;
18114;SDS011;9184;54.390;18.620;2023-03-30T03:11:37;20.67;;;13.07;;
18114;SDS011;9184;54.390;18.620;2023-03-30T03:12:08;24.10;;;12.77;;
18114;SDS011;9184;54.390;18.620;2023-03-30T03:12:40;25.23;;;12.82;;
18114;SDS011;9184;54.390;18.620;2023-03-30T03:13:11;23.13;;;12.87;;
18114;SDS011;9184;54.390;18.620;2023-03-30T03:13:44;22.80;;;12.73;;
18114;SDS011;9184;54.390;18.620;2023-03-30T03:14:15;18.13;;;12.43;;
18114;SDS011;9184;54.390;18.620;2023-03-30T03:14:46;22.73;;;12.00;;
18114;SDS011;9184;54.390;18.620;2023-03-30T03:15:17;26.03;;;13.07;;
18114;SDS011;9184;54.390;18.620;2023-03-30T03:15:48;24.37;;;12.60;;
18114;SDS011;9184;54.390;18.620;2023-03-30T03:16:20;27.70;;;12.87;;
18114;SDS011;9184;54.390;18.620;2023-03-30T03:16:52;23.00;;;13.07;;
18114;SDS011;9184;54.390;18.620;2023-03-30T03:17:22;33.78;;;13.77;;
18114;SDS011;9184;54.390;18.620;2023-03-30T03:17:53;20.13;;;12.80;;
18114;SDS011;9184;54.390;18.620;2023-03-30T03:18:25;21.37;;;12.03;;
18114;SDS011;9184;54.390;18.620;2023-03-30T03:18:55;23.70;;;10.98;;
18114;SDS011;9184;54.390;18.620;2023-03-30T03:19:25;24.03;;;12.63;;
18114;SDS011;9184;54.390;18.620;2023-03-30T03:19:57;19.93;;;12.87;;
18114;SDS011;9184;54.390;18.620;2023-03-30T03:20:27;24.57;;;12.90;;
18114;SDS011;9184;54.390;18.620;2023-03-30T03:20:59;18.63;;;12.03;;
18114;SDS011;9184;54.390;18.620;2023-03-30T03:21:31;25.20;;;12.63;;
18114;SDS011;9184;54.390;18.620;2023-03-30T03:22:01;19.02;;;12.50;;
18114;SDS011;9184;54.390;18.620;2023-03-30T03:22:32;20.37;;;12.73;;
18114;SDS011;9184;54.390;18.620;2023-03-30T03:23:03;23.10;;;13.70;;
18114;SDS011;9184;54.390;18.620;2023-03-30T03:23:34;21.33;;;13.17;;
18114;SDS011;9184;54.390;18.620;2023-03-30T03:24:05;24.10;;;13.00;;